Time;durP1;ratioP1;P1;durP2;ratioP2;P2;SDS_P1;SDS_P2;PMS_P1;PMS_P2;Temp;Humidity;BMP_temperature;BMP_pressure;BME280_temperature;BME280_humidity;BME280_pressure;Samples;Min_cycle;Max_cycle;Signal;HPM_P1;HPM_P2
2021/03/21 00:00:31;;;;;;;19.48;16.38;;;;;;;20.88;38.82;100359.53;2074298;28;20120;-65
2021/03/21 00:01:33;;;;;;;19.42;15.43;;;;;;;20.88;38.94;100359.53;2066897;28;20555;-65
2021/03/21 00:02:34;;;;;;;20.67;17.15;;;;;;;20.87;38.88;100357.81;2068398;28;20042;-65
2021/03/21 00:03:35;;;;;;;21.10;16.63;;;;;;;20.87;39.04;100362.41;2071186;28;20128;-65
2021/03/21 00:04:35;;;;;;;20.17;16.60;;;;;;;20.86;38.97;100356.09;2072137;28;20082;-65
2021/03/21 00:05:37;;;;;;;20.67;16.60;;;;;;;20.85;38.84;100365.34;2071799;28;20057;-65
2021/03/21 00:06:38;;;;;;;23.70;17.08;;;;;;;20.84;39.05;100358.13;2071690;28;20763;-65
2021/03/21 00:07:40;;;;;;;20.03;15.37;;;;;;;20.83;39.04;100359.16;2071979;28;20448;-65
2021/03/21 00:08:40;;;;;;;21.45;15.95;;;;;;;20.84;39.04;100358.13;2074167;28;20030;-66
2021/03/21 00:09:40;;;;;;;20.93;15.73;;;;;;;20.84;39.12;100351.78;2080264;28;20041;-65
2021/03/21 00:10:47;;;;;;;20.33;16.90;;;;;;;20.83;38.86;100345.44;2074769;28;20512;-65
2021/03/21 00:11:47;;;;;;;20.25;16.00;;;;;;;20.83;38.96;100350.06;2071210;28;20517;-65
2021/03/21 00:12:48;;;;;;;21.70;17.10;;;;;;;20.82;39.10;100353.81;2071805;28;20397;-65
2021/03/21 00:13:49;;;;;;;22.20;17.47;;;;;;;20.82;38.94;100351.91;2069868;28;20034;-65
2021/03/21 00:14:49;;;;;;;20.17;16.38;;;;;;;20.82;38.85;100353.81;2071219;28;20034;-65
2021/03/21 00:15:51;;;;;;;19.43;16.40;;;;;;;20.82;39.07;100351.91;2070784;28;20026;-65
2021/03/21 00:16:52;;;;;;;19.40;16.63;;;;;;;20.81;38.94;100346.63;2070148;28;20729;-65
2021/03/21 00:17:54;;;;;;;20.77;16.80;;;;;;;20.80;39.10;100348.50;2067508;28;20038;-65
2021/03/21 00:19:07;;;;;;;21.05;15.90;;;;;;;20.78;39.28;100347.78;2069098;28;20030;-65
2021/03/21 00:20:11;;;;;;;21.05;16.23;;;;;;;20.80;39.02;100344.88;2075197;28;20032;-65
2021/03/21 00:21:13;;;;;;;20.63;16.42;;;;;;;20.79;39.10;100346.75;2070968;28;20029;-65
2021/03/21 00:22:14;;;;;;;21.02;16.77;;;;;;;20.78;39.19;100342.31;2070121;28;20113;-65
2021/03/21 00:23:16;;;;;;;21.13;16.93;;;;;;;20.79;39.12;100346.75;2071092;28;20413;-65
2021/03/21 00:24:16;;;;;;;19.85;16.80;;;;;;;20.79;39.08;100345.91;2067029;28;20109;-65
2021/03/21 00:25:19;;;;;;;20.87;17.03;;;;;;;20.77;39.25;100346.94;2070713;28;20026;-65
2021/03/21 00:26:20;;;;;;;22.17;16.70;;;;;;;20.78;39.16;100347.78;2067720;28;20033;-65
2021/03/21 00:27:20;;;;;;;20.37;17.10;;;;;;;20.77;39.20;100351.53;2069384;28;20113;-66
2021/03/21 00:28:24;;;;;;;20.83;16.47;;;;;;;20.79;39.12;100344.03;2061192;28;20272;-65
2021/03/21 00:31:21;;;;;;;20.55;16.95;;;;;;;20.80;39.11;100348.50;2069316;28;20037;-65
2021/03/21 00:32:21;;;;;;;20.40;16.43;;;;;;;20.79;39.11;100343.16;2071812;28;20033;-65
2021/03/21 00:33:24;;;;;;;21.97;17.10;;;;;;;20.79;39.08;100349.50;2070898;28;20085;-65
2021/03/21 00:34:25;;;;;;;19.88;16.83;;;;;;;20.79;39.14;100343.16;2068159;28;20124;-65
2021/03/21 00:35:25;;;;;;;23.47;17.97;;;;;;;20.79;39.19;100344.03;2071377;28;20041;-65
2021/03/21 00:36:26;;;;;;;19.93;17.10;;;;;;;20.77;39.21;100338.72;2069773;28;20104;-65
2021/03/21 00:37:26;;;;;;;22.80;17.73;;;;;;;20.76;39.13;100345.19;2072163;28;20029;-65
2021/03/21 00:38:34;;;;;;;21.30;16.97;;;;;;;20.74;39.19;100332.66;2074729;28;20555;-65
2021/03/21 00:39:34;;;;;;;21.17;16.92;;;;;;;20.74;39.33;100329.94;2068702;28;20030;-65
2021/03/21 00:40:36;;;;;;;21.93;18.43;;;;;;;20.73;39.11;100339.19;2071862;28;20043;-65
2021/03/21 00:41:36;;;;;;;21.80;17.38;;;;;;;20.72;39.22;100338.28;2073863;28;20058;-65
2021/03/21 00:42:37;;;;;;;21.83;17.90;;;;;;;20.72;39.26;100342.91;2077642;28;20521;-65
2021/03/21 00:43:37;;;;;;;24.30;19.73;;;;;;;20.69;39.43;100341.34;2074018;28;20025;-65
2021/03/21 00:44:38;;;;;;;22.10;18.17;;;;;;;20.70;39.15;100342.19;2078913;28;20036;-65
2021/03/21 00:45:38;;;;;;;25.23;19.57;;;;;;;20.68;39.35;100344.25;2079933;28;20032;-66
2021/03/21 00:46:39;;;;;;;21.43;17.83;;;;;;;20.66;39.32;100344.41;2077719;28;20560;-65
2021/03/21 00:47:39;;;;;;;22.43;19.53;;;;;;;20.66;39.48;100341.66;2071511;28;20029;-65
2021/03/21 00:48:43;;;;;;;24.80;19.27;;;;;;;20.66;39.26;100338.06;2068295;28;20122;-65
2021/03/21 00:49:43;;;;;;;23.90;18.92;;;;;;;20.64;39.35;100337.34;2069437;28;20400;-65
2021/03/21 00:50:44;;;;;;;22.53;17.87;;;;;;;20.63;39.30;100336.50;2071326;28;20048;-65
2021/03/21 00:51:45;;;;;;;21.65;16.65;;;;;;;20.63;39.36;100332.88;2071365;28;20026;-65
2021/03/21 00:52:46;;;;;;;21.35;17.73;;;;;;;20.63;39.42;100332.88;2076385;28;20029;-65
2021/03/21 00:53:47;;;;;;;21.80;17.63;;;;;;;20.62;39.38;100332.03;2074703;28;20538;-65
2021/03/21 00:54:47;;;;;;;21.73;17.43;;;;;;;20.61;39.46;100329.47;2076050;28;20091;-65
2021/03/21 00:55:48;;;;;;;23.70;18.07;;;;;;;20.59;39.39;100326.00;2070446;28;20140;-66
2021/03/21 00:56:48;;;;;;;26.43;19.97;;;;;;;20.58;39.50;100327.88;2070175;28;20080;-65
2021/03/21 00:57:49;;;;;;;24.40;20.30;;;;;;;20.58;39.56;100335.22;2075617;28;20404;-65
2021/03/21 00:58:49;;;;;;;26.33;21.23;;;;;;;20.57;39.45;100337.09;2066984;28;21052;-66
2021/03/21 00:59:50;;;;;;;22.93;18.90;;;;;;;20.55;39.49;100337.28;2072832;28;20061;-65
2021/03/21 01:00:54;;;;;;;26.30;19.83;;;;;;;20.55;39.53;100331.81;2078504;28;20483;-66
2021/03/21 01:01:54;;;;;;;24.60;20.25;;;;;;;20.54;39.54;100340.97;2078280;28;20029;-65
2021/03/21 01:02:56;;;;;;;25.20;19.53;;;;;;;20.54;39.54;100345.59;2071874;28;20040;-65
2021/03/21 01:03:57;;;;;;;23.10;18.52;;;;;;;20.54;39.56;100343.72;2067954;28;20552;-65
2021/03/21 01:04:57;;;;;;;22.03;17.93;;;;;;;20.54;39.64;100340.97;2072442;28;20487;-65
2021/03/21 01:06:00;;;;;;;25.07;19.87;;;;;;;20.53;39.52;100342.00;2078662;28;20416;-66
2021/03/21 01:07:00;;;;;;;24.63;18.48;;;;;;;20.53;39.73;100350.22;2074548;28;20037;-65
2021/03/21 01:08:14;;;;;;;20.97;17.70;;;;;;;20.53;39.64;100344.75;2071835;28;20504;-65
2021/03/21 01:09:15;;;;;;;22.02;17.25;;;;;;;20.51;39.73;100344.03;2071956;28;20025;-65
2021/03/21 01:10:16;;;;;;;23.10;17.83;;;;;;;20.50;39.64;100345.03;2069968;28;20026;-65
2021/03/21 01:11:21;;;;;;;21.57;18.87;;;;;;;20.50;39.75;100347.78;2070768;28;20764;-66
2021/03/21 01:12:22;;;;;;;22.70;18.42;;;;;;;20.49;39.59;100348.78;2073317;28;20065;-65
2021/03/21 01:13:47;;;;;;;23.27;18.83;;;;;;;20.48;39.67;100347.09;2071329;28;20042;-65
2021/03/21 01:14:47;;;;;;;23.67;19.33;;;;;;;20.48;39.75;100348.94;2063503;28;20748;-65
2021/03/21 01:15:48;;;;;;;21.03;17.87;;;;;;;20.47;39.69;100350.81;2065475;28;20347;-66
2021/03/21 01:16:50;;;;;;;21.47;17.33;;;;;;;20.46;39.75;100348.25;2071782;28;20054;-66
2021/03/21 01:17:51;;;;;;;24.42;19.42;;;;;;;20.46;39.73;100359.22;2065345;28;20081;-66
2021/03/21 01:18:53;;;;;;;23.25;18.08;;;;;;;20.44;39.93;100353.88;2064071;28;20030;-65
2021/03/21 01:19:53;;;;;;;;;;;;;;;20.44;39.78;100362.09;2075889;28;20021;-65
2021/03/21 01:20:54;;;;;;;21.35;16.77;;;;;;;20.44;39.81;100362.09;2070120;28;19913;-66
2021/03/21 01:21:54;;;;;;;22.40;18.50;;;;;;;20.42;39.78;100353.16;2071600;28;20154;-65
2021/03/21 01:22:56;;;;;;;24.03;19.10;;;;;;;20.42;39.95;100355.91;2071387;28;20660;-65
2021/03/21 01:23:56;;;;;;;21.88;17.15;;;;;;;20.42;39.87;100358.63;2071672;28;20037;-65
2021/03/21 01:24:57;;;;;;;21.43;17.10;;;;;;;20.42;39.86;100357.78;2070880;28;20040;-65
2021/03/21 01:25:57;;;;;;;20.50;17.17;;;;;;;20.41;39.90;100362.41;2069927;28;20065;-65
2021/03/21 01:26:58;;;;;;;21.83;18.00;;;;;;;20.40;40.03;100355.19;2070865;28;20026;-65
2021/03/21 01:27:58;;;;;;;21.57;17.83;;;;;;;20.41;39.81;100367.03;2071495;28;20548;-66
2021/03/21 01:28:59;;;;;;;22.20;17.00;;;;;;;20.39;40.03;100356.22;2066508;28;21578;-65
2021/03/21 01:29:59;;;;;;;22.87;17.47;;;;;;;20.38;39.97;100362.69;2070683;28;20036;-64
2021/03/21 01:31:07;;;;;;;21.53;18.43;;;;;;;20.36;40.09;100364.72;2069982;28;20783;-64
2021/03/21 01:32:08;;;;;;;26.15;20.55;;;;;;;20.34;40.07;100361.28;2069780;28;20022;-65
2021/03/21 01:33:09;;;;;;;26.35;18.73;;;;;;;20.34;39.92;100366.75;2071040;28;20041;-65
2021/03/21 01:34:11;;;;;;;24.47;18.17;;;;;;;20.34;39.93;100367.63;2069877;28;20029;-65
2021/03/21 01:35:12;;;;;;;24.42;19.45;;;;;;;20.35;40.04;100368.47;2071385;28;20053;-64
2021/03/21 01:36:33;;;;;;;24.38;19.25;;;;;;;20.32;40.05;100372.38;2070014;28;20034;-64
2021/03/21 01:37:34;;;;;;;25.63;20.90;;;;;;;20.31;39.97;100367.91;2067725;28;20637;-64
2021/03/21 01:38:34;;;;;;;24.00;18.97;;;;;;;20.31;40.13;100362.44;2070407;28;20025;-64
2021/03/21 01:39:34;;;;;;;27.60;19.30;;;;;;;20.31;40.06;100361.59;2069567;28;20177;-65
2021/03/21 01:40:37;;;;;;;20.90;16.27;;;;;;;20.32;40.15;100364.16;2070112;28;20449;-65
2021/03/21 01:41:39;;;;;;;20.83;16.75;;;;;;;20.31;40.16;100356.13;2063413;28;20053;-64
2021/03/21 01:42:44;;;;;;;20.42;17.25;;;;;;;20.32;40.10;100368.78;2065699;28;20061;-64
2021/03/21 01:43:46;;;;;;;21.00;16.77;;;;;;;20.31;40.08;100367.06;2071325;28;20022;-66
2021/03/21 01:44:46;;;;;;;20.20;16.65;;;;;;;20.29;40.16;100363.63;2077640;28;20017;-65
2021/03/21 01:45:50;;;;;;;24.57;18.17;;;;;;;20.29;40.27;100363.63;2075680;28;20034;-65
2021/03/21 01:46:50;;;;;;;20.88;17.85;;;;;;;20.25;40.12;100356.72;2068300;28;20084;-65
2021/03/21 01:47:51;;;;;;;22.57;18.30;;;;;;;20.25;40.22;100364.91;2065767;28;20050;-65
2021/03/21 01:48:55;;;;;;;21.07;17.20;;;;;;;20.25;40.28;100359.44;2063210;28;20029;-65
2021/03/21 01:49:56;;;;;;;21.50;17.63;;;;;;;20.25;40.20;100353.97;2070910;28;20053;-64
2021/03/21 01:51:00;;;;;;;22.00;18.20;;;;;;;20.26;40.23;100352.94;2068959;28;20026;-64
2021/03/21 01:52:03;;;;;;;21.25;17.23;;;;;;;20.24;40.29;100350.38;2071519;28;20033;-64
2021/03/21 01:53:03;;;;;;;23.73;18.63;;;;;;;20.23;40.32;100354.09;2073296;28;20029;-65
2021/03/21 01:54:09;;;;;;;22.93;18.53;;;;;;;20.24;40.23;100355.84;2070390;28;20481;-65
2021/03/21 01:55:13;;;;;;;20.20;16.27;;;;;;;20.23;40.26;100359.59;2062391;28;20133;-65
2021/03/21 01:56:13;;;;;;;21.35;17.00;;;;;;;20.23;40.37;100348.63;2070024;28;20692;-65
2021/03/21 01:57:14;;;;;;;22.17;17.63;;;;;;;20.23;40.25;100350.50;2071208;28;20361;-65
2021/03/21 01:58:17;;;;;;;21.33;17.20;;;;;;;20.22;40.38;100346.06;2070444;28;20049;-65
2021/03/21 01:59:29;;;;;;;21.40;17.42;;;;;;;20.21;40.40;100347.94;2067695;28;20436;-65
2021/03/21 02:00:29;;;;;;;21.60;17.75;;;;;;;20.21;40.34;100349.78;2065028;28;20033;-64
2021/03/21 02:01:30;;;;;;;23.93;19.07;;;;;;;20.20;40.48;100348.94;2073917;28;20034;-64
2021/03/21 02:02:30;;;;;;;23.63;18.60;;;;;;;20.19;40.40;100346.38;2070111;28;20021;-64
2021/03/21 02:03:31;;;;;;;20.77;16.70;;;;;;;20.16;40.44;100331.09;2068267;28;20065;-65
2021/03/21 02:04:32;;;;;;;23.33;18.77;;;;;;;20.17;40.38;100337.44;2063154;28;20105;-65
2021/03/21 02:05:33;;;;;;;23.57;19.00;;;;;;;20.17;40.28;100340.19;2070159;28;20034;-65
2021/03/21 02:06:37;;;;;;;21.83;17.98;;;;;;;20.16;40.42;100331.09;2071228;28;20057;-64
2021/03/21 02:07:46;;;;;;;23.35;18.10;;;;;;;20.17;40.43;100331.97;2069293;28;20057;-64
2021/03/21 02:08:54;;;;;;;23.52;18.20;;;;;;;20.19;40.28;100329.97;2066592;28;20030;-65
2021/03/21 02:10:21;;;;;;;23.33;19.42;;;;;;;20.18;40.26;100336.44;2062471;28;20513;-64
2021/03/21 02:11:57;;;;;;;21.55;18.08;;;;;;;20.18;40.32;100331.81;2066046;28;20037;-65
2021/03/21 02:13:11;;;;;;;23.80;18.92;;;;;;;20.18;40.26;100333.69;2058369;28;20393;-64
2021/03/21 02:14:30;;;;;;;26.55;19.75;;;;;;;20.15;40.30;100329.38;2062557;28;20034;-64
2021/03/21 02:15:40;;;;;;;24.90;20.25;;;;;;;20.16;40.33;100331.09;2071675;28;20270;-64
2021/03/21 02:18:45;;;;;;;23.58;19.55;;;;;;;20.17;40.28;100329.25;2071159;28;20041;-64
2021/03/21 02:19:46;;;;;;;22.52;18.05;;;;;;;20.18;40.40;100322.75;2063192;28;20026;-64
2021/03/21 02:21:12;;;;;;;24.00;18.80;;;;;;;20.17;40.33;100321.03;2072672;28;20550;-65
2021/03/21 02:22:24;;;;;;;23.77;18.98;;;;;;;20.15;40.30;100317.56;2073145;28;20048;-66
2021/03/21 02:23:44;;;;;;;;;;;;;;;20.12;40.24;100325.06;2079914;28;20113;-64
2021/03/21 02:25:08;;;;;;;26.10;17.67;;;;;;;20.13;40.25;100325.94;2079226;28;19913;-65
2021/03/21 02:26:48;;;;;;;23.15;18.77;;;;;;;20.13;40.37;100314.97;2077896;28;20396;-65
2021/03/21 02:28:05;;;;;;;24.05;18.45;;;;;;;20.13;40.50;100326.78;2070935;28;20487;-65
2021/03/21 02:29:28;;;;;;;20.58;17.52;;;;;;;20.11;40.50;100320.63;2072934;28;20500;-64
2021/03/21 02:30:45;;;;;;;20.02;16.77;;;;;;;20.11;40.49;100317.00;2073423;28;20768;-65
2021/03/21 02:31:55;;;;;;;21.35;17.92;;;;;;;20.10;40.43;100307.94;2070158;28;20121;-65
2021/03/21 02:33:11;;;;;;;21.55;18.90;;;;;;;20.10;40.46;100309.81;2068032;28;20116;-64
2021/03/21 02:34:32;;;;;;;22.33;16.70;;;;;;;20.08;40.58;100307.22;2072341;28;20146;-64
2021/03/21 02:35:51;;;;;;;19.35;16.15;;;;;;;20.08;40.58;100307.22;2077709;28;20034;-65
2021/03/21 02:37:05;;;;;;;21.70;17.10;;;;;;;20.08;40.50;100300.88;2063083;28;20038;-65
2021/03/21 02:38:34;;;;;;;20.65;16.95;;;;;;;20.06;40.59;100303.81;2067802;28;20032;-65
2021/03/21 02:39:47;;;;;;;22.02;17.45;;;;;;;20.06;40.48;100303.81;2069301;28;20021;-65
2021/03/21 02:40:55;;;;;;;19.55;16.08;;;;;;;20.08;40.57;100304.47;2066728;28;20023;-64
2021/03/21 02:42:08;;;;;;;21.15;17.10;;;;;;;20.08;40.56;100301.75;2070511;28;20042;-64
2021/03/21 02:43:30;;;;;;;21.27;17.58;;;;;;;20.10;40.84;100305.19;2063793;28;20378;-64
2021/03/21 02:44:38;;;;;;;19.15;16.30;;;;;;;20.07;40.75;100301.91;2067962;28;20037;-65
2021/03/21 02:45:41;;;;;;;20.85;16.48;;;;;;;20.07;40.88;100310.13;2066945;28;20404;-65
2021/03/21 02:46:47;;;;;;;24.33;18.05;;;;;;;20.05;40.84;100306.69;2071275;28;20384;-66
2021/03/21 02:47:49;;;;;;;20.77;16.75;;;;;;;20.04;40.90;100304.94;2071491;28;20729;-65
2021/03/21 02:49:02;;;;;;;19.65;17.05;;;;;;;20.02;40.77;100307.84;2070720;28;20022;-66
2021/03/21 02:50:30;;;;;;;22.48;17.63;;;;;;;20.02;40.91;100307.84;2069463;28;20037;-65
2021/03/21 02:51:42;;;;;;;18.58;15.23;;;;;;;20.00;40.91;100298.91;2072913;28;20037;-65
2021/03/21 02:52:56;;;;;;;20.88;17.38;;;;;;;19.99;41.00;100308.16;2070035;28;20034;-65
2021/03/21 02:54:02;;;;;;;18.85;15.93;;;;;;;19.99;40.95;100302.69;2067935;28;20668;-65
2021/03/21 02:55:14;;;;;;;21.10;16.05;;;;;;;19.99;41.03;100291.72;2068790;28;20064;-65
2021/03/21 02:56:19;;;;;;;22.08;16.83;;;;;;;20.00;41.00;100289.84;2069908;28;20119;-65
2021/03/21 02:57:25;;;;;;;21.27;16.20;;;;;;;19.99;40.95;100289.00;2063058;28;20089;-65
2021/03/21 02:58:47;;;;;;;19.38;15.88;;;;;;;19.99;40.92;100299.94;2064633;28;20168;-65
2021/03/21 02:59:54;;;;;;;19.42;15.27;;;;;;;19.99;41.00;100297.22;2061387;28;20018;-65
2021/03/21 03:01:17;;;;;;;18.83;16.55;;;;;;;19.98;40.97;100300.94;2070205;28;20493;-64
2021/03/21 03:02:20;;;;;;;19.67;15.77;;;;;;;19.98;40.95;100298.19;2070142;28;20072;-65
2021/03/21 03:03:23;;;;;;;20.95;16.70;;;;;;;19.98;41.05;100295.47;2068994;28;20034;-64
2021/03/21 03:04:38;;;;;;;18.60;16.25;;;;;;;19.98;41.04;100297.34;2062580;28;20092;-65
2021/03/21 03:05:44;;;;;;;20.80;16.88;;;;;;;19.98;41.02;100300.94;2062755;28;20413;-65
2021/03/21 03:06:52;;;;;;;21.05;15.93;;;;;;;19.96;41.07;100297.47;2063782;28;20080;-66
2021/03/21 03:08:02;;;;;;;19.95;17.25;;;;;;;19.97;41.01;100296.50;2063259;28;20042;-65
2021/03/21 03:09:17;;;;;;;18.60;15.93;;;;;;;19.96;41.06;100297.47;2062720;28;20028;-65
2021/03/21 03:10:28;;;;;;;21.58;16.33;;;;;;;19.95;41.02;100293.03;2068620;28;20038;-64
2021/03/21 03:11:53;;;;;;;19.35;16.08;;;;;;;19.94;40.96;100287.69;2068608;28;20488;-65
2021/03/21 03:13:20;;;;;;;21.67;16.88;;;;;;;19.93;41.13;100281.38;2062148;28;20339;-65
2021/03/21 03:14:24;;;;;;;19.55;15.55;;;;;;;19.92;41.13;100286.00;2070677;28;20100;-64
2021/03/21 03:15:25;;;;;;;19.08;15.43;;;;;;;19.92;41.06;100287.88;2069259;28;20396;-66
2021/03/21 03:16:46;;;;;;;17.33;14.57;;;;;;;19.92;41.20;100290.59;2070782;28;20048;-65
2021/03/21 03:17:56;;;;;;;20.45;16.45;;;;;;;19.91;41.14;100291.59;2064842;28;20546;-65
2021/03/21 03:19:02;;;;;;;20.50;15.98;;;;;;;19.90;41.18;100282.53;2068932;28;20042;-65
2021/03/21 03:20:14;;;;;;;17.13;14.65;;;;;;;19.90;41.19;100288.00;2069705;28;20038;-65
2021/03/21 03:21:28;;;;;;;20.70;16.35;;;;;;;19.89;41.25;100285.41;2069630;28;20384;-65
2021/03/21 03:22:48;;;;;;;19.67;15.85;;;;;;;19.87;41.25;100287.47;2064416;28;20106;-65
2021/03/21 03:24:00;;;;;;;19.92;15.07;;;;;;;19.87;41.00;100290.19;2066495;28;20489;-65
2021/03/21 03:25:18;;;;;;;19.42;15.85;;;;;;;19.87;41.29;100287.47;2069475;28;20029;-65
2021/03/21 03:26:33;;;;;;;19.73;15.38;;;;;;;19.86;41.33;100286.56;2069865;28;20029;-65
2021/03/21 03:27:40;;;;;;;19.65;16.33;;;;;;;19.87;41.31;100292.94;2075584;28;20041;-65
2021/03/21 03:28:54;;;;;;;21.40;16.70;;;;;;;19.87;41.28;100295.66;2074328;28;20745;-65
2021/03/21 03:29:57;;;;;;;22.95;18.02;;;;;;;19.84;40.86;100288.63;2068419;28;20075;-65
2021/03/21 03:31:00;;;;;;;22.10;16.48;;;;;;;19.84;40.89;100287.75;2062406;28;20027;-64
2021/03/21 03:32:27;;;;;;;20.88;16.25;;;;;;;19.85;41.04;100289.47;2062279;28;20034;-64
2021/03/21 03:33:28;;;;;;;21.10;16.13;;;;;;;19.85;40.93;100286.75;2062599;28;20041;-65
2021/03/21 03:34:30;;;;;;;19.35;16.02;;;;;;;19.84;41.00;100288.63;2067222;28;20030;-65
2021/03/21 03:35:30;;;;;;;19.92;16.25;;;;;;;19.85;41.09;100292.22;2070106;28;20044;-65
2021/03/21 03:36:33;;;;;;;19.43;15.90;;;;;;;19.86;41.00;100296.66;2064559;28;20185;-65
2021/03/21 03:37:34;;;;;;;18.52;16.00;;;;;;;19.85;41.09;100292.22;2068794;28;20030;-65
2021/03/21 03:38:37;;;;;;;18.90;15.65;;;;;;;19.87;41.02;100292.94;2062402;28;20040;-65
2021/03/21 03:39:41;;;;;;;19.45;15.40;;;;;;;19.88;40.83;100294.66;2065015;28;20386;-65
2021/03/21 03:40:43;;;;;;;20.77;16.30;;;;;;;19.86;41.04;100291.19;2066623;28;20688;-65
2021/03/21 03:42:05;;;;;;;18.63;15.48;;;;;;;19.86;40.88;100299.41;2068416;28;20145;-65
2021/03/21 03:43:18;;;;;;;19.08;15.63;;;;;;;19.86;41.02;100291.19;2065581;28;20033;-65
2021/03/21 03:44:21;;;;;;;18.23;15.13;;;;;;;19.86;40.97;100292.06;2066788;28;20125;-65
2021/03/21 03:45:34;;;;;;;20.70;15.50;;;;;;;19.86;41.00;100291.19;2070178;28;20030;-64
2021/03/21 03:46:48;;;;;;;18.92;15.48;;;;;;;19.86;41.03;100299.41;2066314;28;20023;-65
2021/03/21 03:48:43;;;;;;;18.10;14.52;;;;;;;19.85;41.08;100297.69;2066358;28;20030;-65
2021/03/21 03:50:12;;;;;;;18.73;15.02;;;;;;;19.85;41.13;100289.47;2047408;28;20106;-65
2021/03/21 03:51:24;;;;;;;17.55;14.18;;;;;;;19.86;41.14;100299.41;2041194;28;20031;-65
2021/03/21 03:52:42;;;;;;;20.55;16.13;;;;;;;19.83;41.17;100292.34;2045968;28;20624;-65
2021/03/21 03:53:50;;;;;;;19.50;15.05;;;;;;;19.83;41.12;100294.25;2052975;28;20042;-65
2021/03/21 03:55:00;;;;;;;17.60;14.88;;;;;;;19.83;41.08;100291.50;2055913;28;20027;-65
2021/03/21 03:56:08;;;;;;;19.70;14.52;;;;;;;19.83;41.12;100297.84;2068851;28;20663;-65
2021/03/21 03:57:16;;;;;;;17.73;15.13;;;;;;;19.83;41.26;100299.72;2068233;28;20097;-65
2021/03/21 03:58:28;;;;;;;18.77;15.23;;;;;;;19.83;41.23;100300.56;2069430;28;20533;-65
2021/03/21 04:00:05;;;;;;;24.02;15.00;;;;;;;19.82;41.26;100295.22;2070493;28;20104;-65
2021/03/21 04:01:15;;;;;;;18.25;14.80;;;;;;;19.81;41.40;100299.00;2077730;28;20064;-66
2021/03/21 04:02:25;;;;;;;17.92;14.38;;;;;;;19.79;41.36;100295.53;2085226;28;20084;-65
2021/03/21 04:03:43;;;;;;;18.67;14.13;;;;;;;19.79;41.29;100295.53;2063605;28;20038;-66
2021/03/21 04:05:01;;;;;;;17.83;14.07;;;;;;;19.77;41.58;100297.56;2073114;28;20084;-65
2021/03/21 04:06:15;;;;;;;18.75;14.10;;;;;;;19.78;41.54;100299.31;2072911;28;20791;-65
2021/03/21 04:07:21;;;;;;;18.13;14.48;;;;;;;19.76;41.47;100284.91;2062451;28;20026;-65
2021/03/21 04:08:47;;;;;;;15.80;13.20;;;;;;;19.75;41.57;100294.13;2069102;28;20084;-65
2021/03/21 04:09:59;;;;;;;17.10;14.57;;;;;;;19.75;41.61;100299.59;2069224;28;20083;-64
2021/03/21 04:11:03;;;;;;;;;;;;;;;19.72;41.62;100298.03;2067245;28;20111;-66
2021/03/21 04:12:06;;;;;;;17.10;14.02;;;;;;;19.72;41.51;100303.50;2070564;28;20296;-66
2021/03/21 04:13:16;;;;;;;17.65;14.30;;;;;;;19.73;41.56;100307.09;2062381;28;20726;-66
2021/03/21 04:14:43;;;;;;;17.13;14.60;;;;;;;19.70;41.62;100309.09;2068981;28;20520;-65
2021/03/21 04:15:50;;;;;;;17.02;13.63;;;;;;;19.72;41.67;100306.25;2068078;28;20049;-65
2021/03/21 04:17:03;;;;;;;17.98;14.45;;;;;;;19.72;41.68;100313.56;2070707;28;20328;-65
2021/03/21 04:18:21;;;;;;;20.98;15.32;;;;;;;19.70;41.64;100311.84;2069407;28;20038;-65
2021/03/21 04:19:27;;;;;;;17.02;14.40;;;;;;;19.70;41.60;100303.63;2073643;28;20033;-65
2021/03/21 04:20:34;;;;;;;16.20;13.65;;;;;;;19.70;41.64;100314.59;2072528;28;20101;-65
2021/03/21 04:21:43;;;;;;;15.48;12.90;;;;;;;19.69;41.78;100311.97;2076562;28;20395;-65
2021/03/21 04:22:54;;;;;;;19.67;14.38;;;;;;;19.68;41.62;100316.59;2078036;28;20029;-64
2021/03/21 04:24:40;;;;;;;17.00;13.63;;;;;;;19.67;41.71;100314.88;2071205;28;20025;-66
2021/03/21 04:25:46;;;;;;;17.33;13.27;;;;;;;19.68;41.60;100311.13;2046341;28;20541;-65
2021/03/21 04:27:01;;;;;;;18.00;14.10;;;;;;;19.68;41.73;100322.06;2070752;28;20061;-64
2021/03/21 04:28:15;;;;;;;16.60;13.48;;;;;;;19.68;41.63;100311.13;2078543;28;20369;-64
2021/03/21 04:29:26;;;;;;;17.42;14.35;;;;;;;19.67;41.79;100309.41;2070743;28;20034;-65
2021/03/21 04:30:32;;;;;;;17.45;14.48;;;;;;;19.68;41.76;100313.00;2069472;28;20029;-66
2021/03/21 04:31:35;;;;;;;16.70;13.90;;;;;;;19.69;41.71;100317.44;2079637;28;20049;-65
2021/03/21 04:32:41;;;;;;;17.70;13.88;;;;;;;19.68;41.48;100315.75;2079588;28;20037;-65
2021/03/21 04:33:57;;;;;;;15.35;12.80;;;;;;;19.70;41.75;100313.72;2073397;28;20125;-65
2021/03/21 04:35:03;;;;;;;17.48;14.07;;;;;;;19.68;41.48;100311.13;2069465;28;20080;-65
2021/03/21 04:36:12;;;;;;;16.25;13.05;;;;;;;19.69;41.34;100318.31;2069962;28;20111;-65
2021/03/21 04:37:14;;;;;;;16.77;13.88;;;;;;;19.69;41.40;100318.31;2070752;28;20045;-65
2021/03/21 04:38:22;;;;;;;17.73;13.90;;;;;;;19.69;41.42;100318.31;2070962;28;20034;-64
2021/03/21 04:39:30;;;;;;;17.65;14.70;;;;;;;19.72;41.47;100313.56;2070981;28;20128;-65
2021/03/21 04:40:31;;;;;;;18.13;14.10;;;;;;;19.72;41.47;100319.03;2067091;28;20032;-65
2021/03/21 04:41:45;;;;;;;17.30;13.20;;;;;;;19.70;41.44;100311.84;2071813;28;20049;-65
2021/03/21 04:42:56;;;;;;;16.52;13.52;;;;;;;19.72;41.45;100316.28;2063678;28;20057;-66
2021/03/21 04:44:05;;;;;;;17.42;14.07;;;;;;;19.73;41.38;100312.56;2062544;28;20053;-65
2021/03/21 04:45:16;;;;;;;18.00;14.00;;;;;;;19.72;41.26;100311.72;2063945;28;20034;-65
2021/03/21 04:46:23;;;;;;;18.02;13.27;;;;;;;19.72;41.26;100305.34;2063737;28;20412;-65
2021/03/21 04:47:38;;;;;;;17.17;13.77;;;;;;;19.72;41.34;100310.81;2063248;28;20409;-66
2021/03/21 04:48:38;;;;;;;16.85;13.70;;;;;;;19.71;41.42;100309.97;2063682;28;20030;-65
2021/03/21 04:49:39;;;;;;;16.57;13.70;;;;;;;19.72;41.30;100310.81;2072046;28;20494;-64
2021/03/21 04:50:39;;;;;;;18.13;13.57;;;;;;;19.72;41.37;100305.34;2070301;28;20038;-65
2021/03/21 04:51:43;;;;;;;17.27;14.37;;;;;;;19.72;41.35;100308.97;2071899;28;20038;-65
2021/03/21 04:53:05;;;;;;;17.02;12.95;;;;;;;19.72;41.35;100313.56;2077906;28;20040;-65
2021/03/21 04:54:27;;;;;;;16.98;13.43;;;;;;;19.70;41.40;100300.06;2073920;28;20448;-65
2021/03/21 04:55:38;;;;;;;17.30;13.95;;;;;;;19.69;41.55;100301.91;2063638;28;20026;-64
2021/03/21 04:56:47;;;;;;;15.32;12.10;;;;;;;19.70;41.62;100309.09;2064995;28;20040;-65
2021/03/21 04:57:49;;;;;;;17.27;13.68;;;;;;;19.70;41.64;100305.53;2071688;28;20076;-65
2021/03/21 04:58:55;;;;;;;16.27;13.80;;;;;;;19.70;41.45;100309.09;2070419;28;20781;-65
2021/03/21 04:59:56;;;;;;;16.33;13.23;;;;;;;19.70;41.60;100311.00;2070842;28;20037;-64
2021/03/21 05:01:04;;;;;;;15.63;12.67;;;;;;;19.69;41.51;100318.31;2068628;28;20303;-65
2021/03/21 05:02:14;;;;;;;15.32;12.93;;;;;;;19.69;41.71;100309.25;2070708;28;20080;-65
2021/03/21 05:03:32;;;;;;;16.83;13.13;;;;;;;19.68;41.64;100311.13;2070209;28;20079;-65
2021/03/21 05:04:39;;;;;;;17.98;13.27;;;;;;;19.67;41.78;100317.63;2063975;28;20030;-65
2021/03/21 05:05:45;;;;;;;14.85;12.00;;;;;;;19.67;41.79;100314.88;2070899;28;20141;-66
2021/03/21 05:06:54;;;;;;;15.07;13.00;;;;;;;19.66;41.76;100315.84;2065600;28;20068;-65
2021/03/21 05:08:17;;;;;;;14.40;12.13;;;;;;;19.64;41.80;100315.13;2079812;28;20034;-65
2021/03/21 05:09:29;;;;;;;16.40;12.15;;;;;;;19.63;41.68;100313.41;2078257;28;20061;-65
2021/03/21 05:10:43;;;;;;;;;;;;;;;19.63;41.88;100318.03;2072948;28;20112;-66
2021/03/21 05:12:02;;;;;;;14.30;12.02;;;;;;;19.62;42.03;100321.75;2069027;28;20414;-65